sensor_id;sensor_type;location;lat;lon;timestamp;P1;durP1;ratioP1;P2;durP2;ratioP2
20008;SDS011;10165;42.662;23.260;2022-10-16T00:01:18;7.33;;;4.17;;
20008;SDS011;10165;42.662;23.260;2022-10-16T00:03:47;6.50;;;4.60;;
20008;SDS011;10165;42.662;23.260;2022-10-16T00:06:14;6.17;;;4.17;;
20008;SDS011;10165;42.662;23.260;2022-10-16T00:08:43;5.40;;;4.37;;
20008;SDS011;10165;42.662;23.260;2022-10-16T00:13:41;8.00;;;4.60;;
20008;SDS011;10165;42.662;23.260;2022-10-16T00:16:10;7.30;;;4.17;;
20008;SDS011;10165;42.662;23.260;2022-10-16T00:18:38;11.57;;;4.53;;
20008;SDS011;10165;42.662;23.260;2022-10-16T00:21:39;8.37;;;5.00;;
20008;SDS011;10165;42.662;23.260;2022-10-16T00:24:00;10.70;;;4.13;;
20008;SDS011;10165;42.662;23.260;2022-10-16T00:26:33;7.37;;;4.10;;
20008;SDS011;10165;42.662;23.260;2022-10-16T00:29:00;6.80;;;4.17;;
20008;SDS011;10165;42.662;23.260;2022-10-16T00:31:27;6.80;;;4.60;;
20008;SDS011;10165;42.662;23.260;2022-10-16T00:33:54;12.03;;;4.37;;
20008;SDS011;10165;42.662;23.260;2022-10-16T00:36:22;7.80;;;4.83;;
20008;SDS011;10165;42.662;23.260;2022-10-16T00:38:52;5.63;;;4.17;;
20008;SDS011;10165;42.662;23.260;2022-10-16T00:41:21;7.30;;;3.83;;
20008;SDS011;10165;42.662;23.260;2022-10-16T00:43:50;8.07;;;4.13;;
20008;SDS011;10165;42.662;23.260;2022-10-16T00:46:26;6.47;;;4.20;;
20008;SDS011;10165;42.662;23.260;2022-10-16T00:49:03;5.40;;;3.67;;
20008;SDS011;10165;42.662;23.260;2022-10-16T00:51:34;6.23;;;3.97;;
20008;SDS011;10165;42.662;23.260;2022-10-16T00:54:04;8.80;;;4.20;;
20008;SDS011;10165;42.662;23.260;2022-10-16T00:56:34;5.97;;;3.60;;
20008;SDS011;10165;42.662;23.260;2022-10-16T00:59:02;4.70;;;3.40;;
20008;SDS011;10165;42.662;23.260;2022-10-16T01:01:33;4.67;;;3.37;;
20008;SDS011;10165;42.662;23.260;2022-10-16T01:04:00;6.13;;;3.40;;
20008;SDS011;10165;42.662;23.260;2022-10-16T01:06:36;11.37;;;3.67;;
20008;SDS011;10165;42.662;23.260;2022-10-16T01:11:57;6.87;;;4.00;;
20008;SDS011;10165;42.662;23.260;2022-10-16T01:14:46;6.43;;;3.87;;
20008;SDS011;10165;42.662;23.260;2022-10-16T01:17:32;4.87;;;3.53;;
20008;SDS011;10165;42.662;23.260;2022-10-16T01:20:26;10.53;;;4.60;;
20008;SDS011;10165;42.662;23.260;2022-10-16T01:22:58;5.40;;;3.77;;
20008;SDS011;10165;42.662;23.260;2022-10-16T01:28:26;4.50;;;3.70;;
20008;SDS011;10165;42.662;23.260;2022-10-16T01:30:59;5.80;;;4.03;;
20008;SDS011;10165;42.662;23.260;2022-10-16T01:33:51;5.13;;;3.43;;
20008;SDS011;10165;42.662;23.260;2022-10-16T01:36:26;5.77;;;3.90;;
20008;SDS011;10165;42.662;23.260;2022-10-16T01:39:00;6.53;;;3.83;;
20008;SDS011;10165;42.662;23.260;2022-10-16T01:41:45;7.00;;;4.67;;
20008;SDS011;10165;42.662;23.260;2022-10-16T01:44:25;8.80;;;3.60;;
20008;SDS011;10165;42.662;23.260;2022-10-16T01:46:54;4.73;;;3.63;;
20008;SDS011;10165;42.662;23.260;2022-10-16T01:49:23;8.40;;;4.30;;
20008;SDS011;10165;42.662;23.260;2022-10-16T01:51:53;4.43;;;3.77;;
20008;SDS011;10165;42.662;23.260;2022-10-16T01:54:30;6.40;;;4.40;;
20008;SDS011;10165;42.662;23.260;2022-10-16T02:00:38;5.60;;;4.13;;
20008;SDS011;10165;42.662;23.260;2022-10-16T02:03:08;6.00;;;3.87;;
20008;SDS011;10165;42.662;23.260;2022-10-16T02:05:39;5.53;;;3.97;;
20008;SDS011;10165;42.662;23.260;2022-10-16T02:08:11;6.80;;;4.60;;
20008;SDS011;10165;42.662;23.260;2022-10-16T02:10:38;7.73;;;4.20;;
20008;SDS011;10165;42.662;23.260;2022-10-16T02:13:12;10.10;;;5.10;;
20008;SDS011;10165;42.662;23.260;2022-10-16T02:15:46;6.83;;;5.03;;
20008;SDS011;10165;42.662;23.260;2022-10-16T02:18:13;6.27;;;4.07;;
20008;SDS011;10165;42.662;23.260;2022-10-16T02:20:46;9.20;;;4.67;;
20008;SDS011;10165;42.662;23.260;2022-10-16T02:23:27;7.77;;;4.20;;
20008;SDS011;10165;42.662;23.260;2022-10-16T02:26:07;6.47;;;3.90;;
20008;SDS011;10165;42.662;23.260;2022-10-16T02:28:45;11.67;;;4.33;;
20008;SDS011;10165;42.662;23.260;2022-10-16T02:31:20;12.00;;;5.40;;
20008;SDS011;10165;42.662;23.260;2022-10-16T02:33:54;13.43;;;5.27;;
20008;SDS011;10165;42.662;23.260;2022-10-16T02:36:24;8.80;;;4.40;;
20008;SDS011;10165;42.662;23.260;2022-10-16T02:38:52;9.93;;;5.67;;
20008;SDS011;10165;42.662;23.260;2022-10-16T02:41:20;8.47;;;5.33;;
20008;SDS011;10165;42.662;23.260;2022-10-16T02:43:48;6.87;;;4.87;;
20008;SDS011;10165;42.662;23.260;2022-10-16T02:46:16;7.40;;;5.30;;
20008;SDS011;10165;42.662;23.260;2022-10-16T02:48:43;5.93;;;4.27;;
20008;SDS011;10165;42.662;23.260;2022-10-16T02:51:10;9.57;;;5.43;;
20008;SDS011;10165;42.662;23.260;2022-10-16T02:53:36;5.80;;;4.37;;
20008;SDS011;10165;42.662;23.260;2022-10-16T02:56:03;9.73;;;4.80;;
20008;SDS011;10165;42.662;23.260;2022-10-16T02:58:30;9.10;;;4.70;;
20008;SDS011;10165;42.662;23.260;2022-10-16T03:00:56;5.80;;;4.43;;
20008;SDS011;10165;42.662;23.260;2022-10-16T03:03:23;5.30;;;3.80;;
20008;SDS011;10165;42.662;23.260;2022-10-16T03:05:50;7.60;;;4.43;;
20008;SDS011;10165;42.662;23.260;2022-10-16T03:08:16;6.47;;;4.87;;
20008;SDS011;10165;42.662;23.260;2022-10-16T03:10:43;6.17;;;4.30;;
20008;SDS011;10165;42.662;23.260;2022-10-16T03:13:10;9.40;;;5.27;;
20008;SDS011;10165;42.662;23.260;2022-10-16T03:15:36;7.40;;;4.93;;
20008;SDS011;10165;42.662;23.260;2022-10-16T03:18:03;11.37;;;7.23;;
20008;SDS011;10165;42.662;23.260;2022-10-16T03:20:30;9.83;;;5.47;;
20008;SDS011;10165;42.662;23.260;2022-10-16T03:22:56;7.13;;;5.03;;
20008;SDS011;10165;42.662;23.260;2022-10-16T03:25:23;6.43;;;4.77;;
20008;SDS011;10165;42.662;23.260;2022-10-16T03:27:49;6.10;;;4.73;;
20008;SDS011;10165;42.662;23.260;2022-10-16T03:30:16;5.27;;;4.13;;
20008;SDS011;10165;42.662;23.260;2022-10-16T03:32:46;5.83;;;3.83;;
20008;SDS011;10165;42.662;23.260;2022-10-16T03:35:13;9.93;;;4.67;;
20008;SDS011;10165;42.662;23.260;2022-10-16T03:37:39;8.20;;;4.20;;
20008;SDS011;10165;42.662;23.260;2022-10-16T03:40:06;8.83;;;4.37;;
20008;SDS011;10165;42.662;23.260;2022-10-16T03:42:33;12.37;;;5.00;;
20008;SDS011;10165;42.662;23.260;2022-10-16T03:45:00;6.43;;;4.50;;
20008;SDS011;10165;42.662;23.260;2022-10-16T03:47:26;6.40;;;4.60;;
20008;SDS011;10165;42.662;23.260;2022-10-16T03:49:53;5.87;;;4.20;;
20008;SDS011;10165;42.662;23.260;2022-10-16T03:52:20;5.83;;;4.43;;
20008;SDS011;10165;42.662;23.260;2022-10-16T03:54:47;6.53;;;4.47;;
20008;SDS011;10165;42.662;23.260;2022-10-16T03:57:13;6.17;;;4.67;;
20008;SDS011;10165;42.662;23.260;2022-10-16T03:59:40;6.87;;;4.07;;
20008;SDS011;10165;42.662;23.260;2022-10-16T04:02:06;7.77;;;4.60;;
20008;SDS011;10165;42.662;23.260;2022-10-16T04:04:33;7.20;;;4.90;;
20008;SDS011;10165;42.662;23.260;2022-10-16T04:07:00;6.77;;;5.13;;
20008;SDS011;10165;42.662;23.260;2022-10-16T04:09:27;5.73;;;4.73;;
20008;SDS011;10165;42.662;23.260;2022-10-16T04:11:53;6.90;;;4.60;;
20008;SDS011;10165;42.662;23.260;2022-10-16T04:14:20;9.27;;;4.80;;
20008;SDS011;10165;42.662;23.260;2022-10-16T04:16:47;6.20;;;4.67;;
20008;SDS011;10165;42.662;23.260;2022-10-16T04:19:13;8.30;;;4.47;;
20008;SDS011;10165;42.662;23.260;2022-10-16T04:21:40;6.37;;;4.77;;
20008;SDS011;10165;42.662;23.260;2022-10-16T04:24:06;5.17;;;4.13;;
20008;SDS011;10165;42.662;23.260;2022-10-16T04:26:33;5.90;;;4.17;;
20008;SDS011;10165;42.662;23.260;2022-10-16T04:29:00;4.50;;;3.90;;
20008;SDS011;10165;42.662;23.260;2022-10-16T04:31:26;6.30;;;4.20;;
20008;SDS011;10165;42.662;23.260;2022-10-16T04:33:53;5.80;;;4.03;;
20008;SDS011;10165;42.662;23.260;2022-10-16T04:36:20;6.13;;;4.13;;
20008;SDS011;10165;42.662;23.260;2022-10-16T04:38:51;12.07;;;5.10;;
20008;SDS011;10165;42.662;23.260;2022-10-16T04:41:18;7.43;;;4.73;;
20008;SDS011;10165;42.662;23.260;2022-10-16T04:43:45;8.87;;;5.23;;
20008;SDS011;10165;42.662;23.260;2022-10-16T04:46:11;6.10;;;3.93;;
20008;SDS011;10165;42.662;23.260;2022-10-16T04:48:38;9.33;;;4.87;;
20008;SDS011;10165;42.662;23.260;2022-10-16T04:51:05;7.03;;;5.00;;
20008;SDS011;10165;42.662;23.260;2022-10-16T04:53:31;7.27;;;4.70;;
20008;SDS011;10165;42.662;23.260;2022-10-16T04:55:59;12.33;;;5.13;;
20008;SDS011;10165;42.662;23.260;2022-10-16T04:58:26;8.33;;;4.00;;
20008;SDS011;10165;42.662;23.260;2022-10-16T05:00:52;8.90;;;4.57;;
20008;SDS011;10165;42.662;23.260;2022-10-16T05:03:20;6.57;;;4.50;;
20008;SDS011;10165;42.662;23.260;2022-10-16T05:05:47;9.60;;;4.70;;
20008;SDS011;10165;42.662;23.260;2022-10-16T05:08:14;6.40;;;4.33;;
20008;SDS011;10165;42.662;23.260;2022-10-16T05:10:42;8.57;;;5.03;;
20008;SDS011;10165;42.662;23.260;2022-10-16T05:13:10;7.13;;;4.27;;
20008;SDS011;10165;42.662;23.260;2022-10-16T05:15:37;15.50;;;5.43;;
20008;SDS011;10165;42.662;23.260;2022-10-16T05:18:04;6.93;;;4.73;;
20008;SDS011;10165;42.662;23.260;2022-10-16T05:20:30;7.53;;;4.43;;
20008;SDS011;10165;42.662;23.260;2022-10-16T05:22:59;7.80;;;5.10;;
20008;SDS011;10165;42.662;23.260;2022-10-16T05:25:26;8.10;;;5.10;;
20008;SDS011;10165;42.662;23.260;2022-10-16T05:27:52;6.50;;;5.00;;
20008;SDS011;10165;42.662;23.260;2022-10-16T05:30:19;5.70;;;4.47;;
20008;SDS011;10165;42.662;23.260;2022-10-16T05:32:47;9.87;;;5.30;;
20008;SDS011;10165;42.662;23.260;2022-10-16T05:35:15;10.10;;;4.87;;
20008;SDS011;10165;42.662;23.260;2022-10-16T05:37:42;6.87;;;4.97;;
20008;SDS011;10165;42.662;23.260;2022-10-16T05:40:09;8.07;;;5.67;;
20008;SDS011;10165;42.662;23.260;2022-10-16T05:42:37;7.63;;;4.70;;
20008;SDS011;10165;42.662;23.260;2022-10-16T05:45:04;11.30;;;5.80;;
20008;SDS011;10165;42.662;23.260;2022-10-16T05:47:32;13.03;;;6.67;;
20008;SDS011;10165;42.662;23.260;2022-10-16T05:49:59;9.53;;;7.10;;
20008;SDS011;10165;42.662;23.260;2022-10-16T05:52:26;12.13;;;8.10;;
20008;SDS011;10165;42.662;23.260;2022-10-16T05:54:53;14.73;;;8.10;;
20008;SDS011;10165;42.662;23.260;2022-10-16T05:57:20;8.50;;;6.30;;
20008;SDS011;10165;42.662;23.260;2022-10-16T05:59:47;9.47;;;6.33;;
20008;SDS011;10165;42.662;23.260;2022-10-16T06:02:13;10.37;;;6.23;;
20008;SDS011;10165;42.662;23.260;2022-10-16T06:04:40;14.10;;;6.73;;
20008;SDS011;10165;42.662;23.260;2022-10-16T06:07:07;9.67;;;6.20;;
20008;SDS011;10165;42.662;23.260;2022-10-16T06:09:34;8.30;;;6.03;;
20008;SDS011;10165;42.662;23.260;2022-10-16T06:12:00;9.93;;;6.37;;
20008;SDS011;10165;42.662;23.260;2022-10-16T06:14:27;11.53;;;6.30;;
20008;SDS011;10165;42.662;23.260;2022-10-16T06:16:54;11.30;;;6.80;;
20008;SDS011;10165;42.662;23.260;2022-10-16T06:19:20;14.87;;;7.53;;
20008;SDS011;10165;42.662;23.260;2022-10-16T06:21:47;14.30;;;7.30;;
20008;SDS011;10165;42.662;23.260;2022-10-16T06:24:14;17.13;;;7.57;;
20008;SDS011;10165;42.662;23.260;2022-10-16T06:26:40;8.27;;;6.27;;
20008;SDS011;10165;42.662;23.260;2022-10-16T06:29:08;12.90;;;7.67;;
20008;SDS011;10165;42.662;23.260;2022-10-16T06:31:35;13.17;;;6.63;;
20008;SDS011;10165;42.662;23.260;2022-10-16T06:34:01;9.77;;;6.23;;
20008;SDS011;10165;42.662;23.260;2022-10-16T06:36:29;10.97;;;7.13;;
20008;SDS011;10165;42.662;23.260;2022-10-16T06:38:56;10.33;;;7.03;;
20008;SDS011;10165;42.662;23.260;2022-10-16T06:41:22;10.63;;;7.40;;
20008;SDS011;10165;42.662;23.260;2022-10-16T06:43:49;11.33;;;7.50;;
20008;SDS011;10165;42.662;23.260;2022-10-16T06:46:18;14.37;;;7.10;;
20008;SDS011;10165;42.662;23.260;2022-10-16T06:48:46;9.07;;;7.03;;
20008;SDS011;10165;42.662;23.260;2022-10-16T06:51:23;13.13;;;7.20;;
20008;SDS011;10165;42.662;23.260;2022-10-16T06:53:53;9.53;;;7.40;;
20008;SDS011;10165;42.662;23.260;2022-10-16T06:56:32;17.00;;;7.27;;
20008;SDS011;10165;42.662;23.260;2022-10-16T06:58:59;14.83;;;7.30;;
20008;SDS011;10165;42.662;23.260;2022-10-16T07:01:27;10.83;;;6.97;;
20008;SDS011;10165;42.662;23.260;2022-10-16T07:03:54;12.23;;;7.07;;
20008;SDS011;10165;42.662;23.260;2022-10-16T07:06:22;12.53;;;7.60;;
20008;SDS011;10165;42.662;23.260;2022-10-16T07:08:50;13.80;;;6.47;;
20008;SDS011;10165;42.662;23.260;2022-10-16T07:11:18;9.33;;;6.37;;
20008;SDS011;10165;42.662;23.260;2022-10-16T07:13:47;11.13;;;6.70;;
20008;SDS011;10165;42.662;23.260;2022-10-16T07:16:22;10.70;;;6.80;;
20008;SDS011;10165;42.662;23.260;2022-10-16T07:18:51;9.17;;;6.33;;
20008;SDS011;10165;42.662;23.260;2022-10-16T07:21:23;9.37;;;5.50;;
20008;SDS011;10165;42.662;23.260;2022-10-16T07:23:55;8.17;;;6.33;;
20008;SDS011;10165;42.662;23.260;2022-10-16T07:26:24;8.33;;;5.97;;
20008;SDS011;10165;42.662;23.260;2022-10-16T07:28:52;12.10;;;7.63;;
20008;SDS011;10165;42.662;23.260;2022-10-16T07:31:19;8.30;;;6.43;;
20008;SDS011;10165;42.662;23.260;2022-10-16T07:33:47;10.33;;;6.87;;
20008;SDS011;10165;42.662;23.260;2022-10-16T07:36:15;9.10;;;6.03;;
20008;SDS011;10165;42.662;23.260;2022-10-16T07:38:45;10.77;;;6.20;;
20008;SDS011;10165;42.662;23.260;2022-10-16T07:41:13;8.80;;;6.23;;
20008;SDS011;10165;42.662;23.260;2022-10-16T07:43:51;7.63;;;5.47;;
20008;SDS011;10165;42.662;23.260;2022-10-16T07:46:20;8.20;;;5.80;;
20008;SDS011;10165;42.662;23.260;2022-10-16T07:48:48;8.33;;;6.10;;
20008;SDS011;10165;42.662;23.260;2022-10-16T07:51:16;10.53;;;6.40;;
20008;SDS011;10165;42.662;23.260;2022-10-16T07:53:45;12.53;;;6.10;;
20008;SDS011;10165;42.662;23.260;2022-10-16T07:56:12;7.20;;;5.60;;
20008;SDS011;10165;42.662;23.260;2022-10-16T07:58:38;10.63;;;7.23;;
20008;SDS011;10165;42.662;23.260;2022-10-16T08:01:06;14.40;;;6.80;;
20008;SDS011;10165;42.662;23.260;2022-10-16T08:03:35;9.10;;;6.43;;
20008;SDS011;10165;42.662;23.260;2022-10-16T08:06:02;9.87;;;6.17;;
20008;SDS011;10165;42.662;23.260;2022-10-16T08:08:29;11.63;;;6.83;;
20008;SDS011;10165;42.662;23.260;2022-10-16T08:10:56;11.17;;;6.03;;
20008;SDS011;10165;42.662;23.260;2022-10-16T08:13:23;14.17;;;6.40;;
20008;SDS011;10165;42.662;23.260;2022-10-16T08:15:50;12.67;;;7.13;;
20008;SDS011;10165;42.662;23.260;2022-10-16T08:18:16;10.77;;;7.70;;
20008;SDS011;10165;42.662;23.260;2022-10-16T08:20:43;9.87;;;7.13;;
20008;SDS011;10165;42.662;23.260;2022-10-16T08:23:13;13.30;;;8.03;;
20008;SDS011;10165;42.662;23.260;2022-10-16T08:25:40;12.37;;;6.87;;
20008;SDS011;10165;42.662;23.260;2022-10-16T08:28:08;17.60;;;7.70;;
20008;SDS011;10165;42.662;23.260;2022-10-16T08:30:36;12.30;;;7.70;;
20008;SDS011;10165;42.662;23.260;2022-10-16T08:33:03;10.33;;;7.17;;
20008;SDS011;10165;42.662;23.260;2022-10-16T08:35:30;11.40;;;7.10;;
20008;SDS011;10165;42.662;23.260;2022-10-16T08:37:56;10.80;;;5.73;;
20008;SDS011;10165;42.662;23.260;2022-10-16T08:40:27;8.23;;;5.60;;
20008;SDS011;10165;42.662;23.260;2022-10-16T08:48:48;9.07;;;5.23;;
20008;SDS011;10165;42.662;23.260;2022-10-16T08:51:21;7.03;;;4.67;;
20008;SDS011;10165;42.662;23.260;2022-10-16T08:56:17;7.23;;;4.97;;
20008;SDS011;10165;42.662;23.260;2022-10-16T08:58:45;8.60;;;4.67;;
20008;SDS011;10165;42.662;23.260;2022-10-16T09:01:19;8.50;;;4.60;;
20008;SDS011;10165;42.662;23.260;2022-10-16T09:04:08;6.70;;;4.30;;
20008;SDS011;10165;42.662;23.260;2022-10-16T09:07:04;7.50;;;4.30;;
20008;SDS011;10165;42.662;23.260;2022-10-16T09:15:39;4.63;;;3.20;;
20008;SDS011;10165;42.662;23.260;2022-10-16T09:21:13;2.83;;;2.47;;
20008;SDS011;10165;42.662;23.260;2022-10-16T09:23:44;4.60;;;3.33;;
20008;SDS011;10165;42.662;23.260;2022-10-16T09:26:11;4.37;;;3.10;;
20008;SDS011;10165;42.662;23.260;2022-10-16T09:28:40;4.00;;;3.40;;
20008;SDS011;10165;42.662;23.260;2022-10-16T09:31:15;3.60;;;3.00;;
20008;SDS011;10165;42.662;23.260;2022-10-16T09:33:45;5.53;;;3.30;;
20008;SDS011;10165;42.662;23.260;2022-10-16T09:36:16;7.40;;;2.70;;
20008;SDS011;10165;42.662;23.260;2022-10-16T09:38:44;7.50;;;3.27;;
20008;SDS011;10165;42.662;23.260;2022-10-16T09:41:17;5.30;;;2.73;;
20008;SDS011;10165;42.662;23.260;2022-10-16T09:49:02;7.03;;;2.77;;
20008;SDS011;10165;42.662;23.260;2022-10-16T09:51:47;3.93;;;2.93;;
20008;SDS011;10165;42.662;23.260;2022-10-16T09:54:14;5.57;;;2.83;;
20008;SDS011;10165;42.662;23.260;2022-10-16T09:56:45;3.50;;;2.80;;
20008;SDS011;10165;42.662;23.260;2022-10-16T09:59:16;3.73;;;2.93;;
20008;SDS011;10165;42.662;23.260;2022-10-16T10:01:45;5.43;;;3.13;;
20008;SDS011;10165;42.662;23.260;2022-10-16T10:04:14;7.13;;;2.83;;
20008;SDS011;10165;42.662;23.260;2022-10-16T10:06:45;3.67;;;2.80;;
20008;SDS011;10165;42.662;23.260;2022-10-16T10:09:23;6.03;;;2.97;;
20008;SDS011;10165;42.662;23.260;2022-10-16T10:12:01;5.40;;;2.70;;
20008;SDS011;10165;42.662;23.260;2022-10-16T10:14:35;6.23;;;3.90;;
20008;SDS011;10165;42.662;23.260;2022-10-16T10:22:29;9.60;;;3.30;;
20008;SDS011;10165;42.662;23.260;2022-10-16T10:36:22;3.60;;;2.17;;
20008;SDS011;10165;42.662;23.260;2022-10-16T10:56:09;2.53;;;2.33;;
20008;SDS011;10165;42.662;23.260;2022-10-16T10:58:46;4.93;;;2.50;;
20008;SDS011;10165;42.662;23.260;2022-10-16T11:07:26;4.17;;;2.10;;
20008;SDS011;10165;42.662;23.260;2022-10-16T11:10:02;3.27;;;2.10;;
20008;SDS011;10165;42.662;23.260;2022-10-16T11:12:36;2.43;;;2.10;;
20008;SDS011;10165;42.662;23.260;2022-10-16T11:15:12;4.67;;;2.57;;
20008;SDS011;10165;42.662;23.260;2022-10-16T11:17:48;3.50;;;2.50;;
20008;SDS011;10165;42.662;23.260;2022-10-16T11:20:24;6.10;;;2.40;;
20008;SDS011;10165;42.662;23.260;2022-10-16T11:25:28;2.73;;;1.90;;
20008;SDS011;10165;42.662;23.260;2022-10-16T11:28:11;3.10;;;2.20;;
20008;SDS011;10165;42.662;23.260;2022-10-16T11:31:00;2.70;;;2.40;;
20008;SDS011;10165;42.662;23.260;2022-10-16T11:39:04;3.83;;;2.23;;
20008;SDS011;10165;42.662;23.260;2022-10-16T11:41:52;4.70;;;2.00;;
20008;SDS011;10165;42.662;23.260;2022-10-16T11:53:03;2.37;;;1.90;;
20008;SDS011;10165;42.662;23.260;2022-10-16T11:55:33;2.73;;;1.80;;
20008;SDS011;10165;42.662;23.260;2022-10-16T12:03:40;2.60;;;1.90;;
20008;SDS011;10165;42.662;23.260;2022-10-16T12:09:20;2.40;;;1.80;;
20008;SDS011;10165;42.662;23.260;2022-10-16T12:11:51;4.27;;;2.20;;
20008;SDS011;10165;42.662;23.260;2022-10-16T12:14:19;3.67;;;2.50;;
20008;SDS011;10165;42.662;23.260;2022-10-16T12:16:59;3.00;;;2.70;;
20008;SDS011;10165;42.662;23.260;2022-10-16T12:20:18;4.27;;;1.93;;
20008;SDS011;10165;42.662;23.260;2022-10-16T12:23:00;3.47;;;1.53;;
20008;SDS011;10165;42.662;23.260;2022-10-16T12:25:35;1.93;;;1.60;;
20008;SDS011;10165;42.662;23.260;2022-10-16T12:28:06;2.57;;;2.10;;
20008;SDS011;10165;42.662;23.260;2022-10-16T12:30:54;2.93;;;1.97;;
20008;SDS011;10165;42.662;23.260;2022-10-16T12:33:30;3.77;;;2.20;;
20008;SDS011;10165;42.662;23.260;2022-10-16T12:35:58;2.03;;;1.67;;
20008;SDS011;10165;42.662;23.260;2022-10-16T12:38:30;2.13;;;1.90;;
20008;SDS011;10165;42.662;23.260;2022-10-16T12:41:34;2.67;;;2.40;;
20008;SDS011;10165;42.662;23.260;2022-10-16T12:44:03;4.80;;;2.63;;
20008;SDS011;10165;42.662;23.260;2022-10-16T12:49:06;4.57;;;2.40;;
20008;SDS011;10165;42.662;23.260;2022-10-16T12:51:48;3.33;;;2.57;;
20008;SDS011;10165;42.662;23.260;2022-10-16T12:54:27;3.43;;;2.50;;
20008;SDS011;10165;42.662;23.260;2022-10-16T13:00:03;3.17;;;2.30;;
20008;SDS011;10165;42.662;23.260;2022-10-16T13:05:59;4.47;;;1.63;;
20008;SDS011;10165;42.662;23.260;2022-10-16T13:28:31;2.83;;;2.10;;
20008;SDS011;10165;42.662;23.260;2022-10-16T13:31:00;2.43;;;2.23;;
20008;SDS011;10165;42.662;23.260;2022-10-16T13:36:17;5.60;;;2.33;;
20008;SDS011;10165;42.662;23.260;2022-10-16T13:38:46;2.60;;;2.20;;
20008;SDS011;10165;42.662;23.260;2022-10-16T13:41:14;3.33;;;2.17;;
20008;SDS011;10165;42.662;23.260;2022-10-16T13:43:44;5.17;;;2.40;;
20008;SDS011;10165;42.662;23.260;2022-10-16T13:48:55;2.97;;;2.00;;
20008;SDS011;10165;42.662;23.260;2022-10-16T13:51:27;4.90;;;2.30;;
20008;SDS011;10165;42.662;23.260;2022-10-16T13:53:55;2.93;;;2.17;;
20008;SDS011;10165;42.662;23.260;2022-10-16T13:56:30;3.17;;;2.50;;
20008;SDS011;10165;42.662;23.260;2022-10-16T13:58:59;2.43;;;1.77;;
20008;SDS011;10165;42.662;23.260;2022-10-16T14:01:28;6.87;;;2.53;;
20008;SDS011;10165;42.662;23.260;2022-10-16T14:04:06;2.63;;;2.30;;
20008;SDS011;10165;42.662;23.260;2022-10-16T14:06:35;3.80;;;2.20;;
20008;SDS011;10165;42.662;23.260;2022-10-16T14:09:06;5.23;;;2.50;;
20008;SDS011;10165;42.662;23.260;2022-10-16T14:11:43;4.27;;;2.80;;
20008;SDS011;10165;42.662;23.260;2022-10-16T14:14:21;3.30;;;2.00;;
20008;SDS011;10165;42.662;23.260;2022-10-16T14:16:48;7.73;;;2.50;;
20008;SDS011;10165;42.662;23.260;2022-10-16T14:19:20;3.67;;;2.50;;
20008;SDS011;10165;42.662;23.260;2022-10-16T14:21:52;5.20;;;2.67;;
20008;SDS011;10165;42.662;23.260;2022-10-16T14:24:31;4.00;;;2.47;;
20008;SDS011;10165;42.662;23.260;2022-10-16T14:26:59;3.93;;;2.57;;
20008;SDS011;10165;42.662;23.260;2022-10-16T14:29:28;4.37;;;2.20;;
20008;SDS011;10165;42.662;23.260;2022-10-16T14:31:58;3.87;;;2.23;;
20008;SDS011;10165;42.662;23.260;2022-10-16T14:34:34;2.70;;;2.03;;
20008;SDS011;10165;42.662;23.260;2022-10-16T14:37:19;2.67;;;2.30;;
20008;SDS011;10165;42.662;23.260;2022-10-16T14:39:53;3.57;;;2.40;;
20008;SDS011;10165;42.662;23.260;2022-10-16T14:42:21;4.73;;;2.57;;
20008;SDS011;10165;42.662;23.260;2022-10-16T14:44:51;6.63;;;2.47;;
20008;SDS011;10165;42.662;23.260;2022-10-16T14:47:20;3.93;;;2.30;;
20008;SDS011;10165;42.662;23.260;2022-10-16T14:49:52;4.27;;;2.97;;
20008;SDS011;10165;42.662;23.260;2022-10-16T14:52:27;6.73;;;4.00;;
20008;SDS011;10165;42.662;23.260;2022-10-16T14:54:54;6.70;;;4.50;;
20008;SDS011;10165;42.662;23.260;2022-10-16T14:57:24;6.03;;;3.37;;
20008;SDS011;10165;42.662;23.260;2022-10-16T14:59:54;8.37;;;4.00;;
20008;SDS011;10165;42.662;23.260;2022-10-16T15:05:04;4.63;;;2.90;;
20008;SDS011;10165;42.662;23.260;2022-10-16T15:07:37;3.07;;;1.90;;
20008;SDS011;10165;42.662;23.260;2022-10-16T15:10:04;18.23;;;2.13;;
20008;SDS011;10165;42.662;23.260;2022-10-16T15:12:31;2.73;;;1.90;;
20008;SDS011;10165;42.662;23.260;2022-10-16T15:14:58;2.77;;;2.10;;
20008;SDS011;10165;42.662;23.260;2022-10-16T15:17:25;4.03;;;2.43;;
20008;SDS011;10165;42.662;23.260;2022-10-16T15:19:52;4.30;;;2.07;;
20008;SDS011;10165;42.662;23.260;2022-10-16T15:22:18;5.23;;;2.60;;
20008;SDS011;10165;42.662;23.260;2022-10-16T15:24:45;4.57;;;2.20;;
20008;SDS011;10165;42.662;23.260;2022-10-16T15:27:11;8.27;;;2.67;;
20008;SDS011;10165;42.662;23.260;2022-10-16T15:29:38;4.43;;;2.30;;
20008;SDS011;10165;42.662;23.260;2022-10-16T15:32:05;6.83;;;2.57;;
20008;SDS011;10165;42.662;23.260;2022-10-16T15:34:31;6.20;;;2.90;;
20008;SDS011;10165;42.662;23.260;2022-10-16T15:36:58;5.10;;;3.00;;
20008;SDS011;10165;42.662;23.260;2022-10-16T15:39:29;8.77;;;2.97;;
20008;SDS011;10165;42.662;23.260;2022-10-16T15:41:55;11.90;;;3.00;;
20008;SDS011;10165;42.662;23.260;2022-10-16T15:44:22;11.13;;;3.27;;
20008;SDS011;10165;42.662;23.260;2022-10-16T15:46:52;7.17;;;4.17;;
20008;SDS011;10165;42.662;23.260;2022-10-16T15:49:21;8.90;;;4.80;;
20008;SDS011;10165;42.662;23.260;2022-10-16T15:51:48;5.93;;;3.50;;
20008;SDS011;10165;42.662;23.260;2022-10-16T15:54:14;5.80;;;3.17;;
20008;SDS011;10165;42.662;23.260;2022-10-16T15:56:41;4.80;;;3.10;;
20008;SDS011;10165;42.662;23.260;2022-10-16T15:59:08;10.70;;;3.60;;
20008;SDS011;10165;42.662;23.260;2022-10-16T16:01:35;6.17;;;3.43;;
20008;SDS011;10165;42.662;23.260;2022-10-16T16:04:02;5.60;;;2.83;;
20008;SDS011;10165;42.662;23.260;2022-10-16T16:06:50;6.37;;;3.40;;
20008;SDS011;10165;42.662;23.260;2022-10-16T16:09:17;5.37;;;3.30;;
20008;SDS011;10165;42.662;23.260;2022-10-16T16:11:43;6.63;;;3.60;;
20008;SDS011;10165;42.662;23.260;2022-10-16T16:14:11;7.33;;;3.60;;
20008;SDS011;10165;42.662;23.260;2022-10-16T16:16:39;7.50;;;3.37;;
20008;SDS011;10165;42.662;23.260;2022-10-16T16:19:06;5.77;;;3.47;;
20008;SDS011;10165;42.662;23.260;2022-10-16T16:21:37;4.73;;;2.73;;
20008;SDS011;10165;42.662;23.260;2022-10-16T16:24:04;3.90;;;2.93;;
20008;SDS011;10165;42.662;23.260;2022-10-16T16:26:34;5.20;;;3.17;;
20008;SDS011;10165;42.662;23.260;2022-10-16T16:29:05;6.60;;;2.97;;
20008;SDS011;10165;42.662;23.260;2022-10-16T16:31:33;4.87;;;3.10;;
20008;SDS011;10165;42.662;23.260;2022-10-16T16:34:01;8.33;;;3.60;;
20008;SDS011;10165;42.662;23.260;2022-10-16T16:36:28;6.63;;;3.17;;
20008;SDS011;10165;42.662;23.260;2022-10-16T16:38:55;6.57;;;4.60;;
20008;SDS011;10165;42.662;23.260;2022-10-16T16:41:24;12.50;;;4.57;;
20008;SDS011;10165;42.662;23.260;2022-10-16T16:43:53;5.77;;;3.43;;
20008;SDS011;10165;42.662;23.260;2022-10-16T16:46:21;5.47;;;3.60;;
20008;SDS011;10165;42.662;23.260;2022-10-16T16:48:48;8.47;;;4.67;;
20008;SDS011;10165;42.662;23.260;2022-10-16T16:51:21;5.73;;;3.77;;
20008;SDS011;10165;42.662;23.260;2022-10-16T16:53:49;11.93;;;4.33;;
20008;SDS011;10165;42.662;23.260;2022-10-16T16:56:17;7.40;;;3.93;;
20008;SDS011;10165;42.662;23.260;2022-10-16T16:58:45;8.07;;;3.60;;
20008;SDS011;10165;42.662;23.260;2022-10-16T17:01:12;8.43;;;3.33;;
20008;SDS011;10165;42.662;23.260;2022-10-16T17:03:45;5.90;;;4.00;;
20008;SDS011;10165;42.662;23.260;2022-10-16T17:06:13;7.20;;;3.93;;